首页
METAR-TAF:

METAR-TAF

机场 :

热舒夫, 波兰

纬度: 50-06N, 经度: 022-03E, 海拔: 200米

当前天气观测

该预报发布于13分钟前的03:30 UTC
风速6节,风向
温度 -4°C
湿度 100%
气压 1010 hPa
能見度: 6000

METAR: EPRZ 120330Z 10006KT 6000 NSC M04/M04 Q1010

时间: 04:43 (03:43 UTC)

预报

该预报发布于3小时和6分钟前的00:37 UTC
预报有效从12日的 00点(UTC)到 12日的 24点(UTC)
风速10节,风向
能見度: 3000
轻雾
短暂存在
从 12日的 00点(UTC)到 12日的 06点(UTC)
能見度: 0300
多云层高于100英尺
冻雾
成为
从 12日的 02点(UTC)到 12日的 05点(UTC)
风速10节,风向
成为
从 12日的 06点(UTC)到 12日的 09点(UTC)
能见度10公里或以上
1500米以下无云,无积雨云
成为
从 12日的 15点(UTC)到 12日的 18点(UTC)
风速4节,风向
多云层高于600英尺

TAF: EPRZ 120037Z 1200/1224 10010KT 3000 BR NSC TEMPO 1200/1206 0300 FZFG BKN001 BECMG 1202/1205 17010KT BECMG 1206/1209 CAVOK BECMG 1215/1218 10004KT BKN006

超过4000个机场的气象观测和天气预报(METAR&TAF报告)。

可查询的气象台以黄色和红色小点在地图上表示。

将鼠标移到小点上方,可查看气象台名称。

然后点击查看天气观测和预报。

如需切换地图:点击带黑十字的绿色按钮放大地图;点击带横线的绿色按钮缩小地图;或者点击绿色箭头查看邻近地区的地图。


METAR-TAF: